Time;durP1;ratioP1;P1;durP2;ratioP2;P2;SDS_P1;SDS_P2;PMS_P1;PMS_P2;Temp;Humidity;BMP_temperature;BMP_pressure;BME280_temperature;BME280_humidity;BME280_pressure;Samples;Min_cycle;Max_cycle;Signal;HPM_P1;HPM_P2
2023/04/02 00:01:37;;;;;;;0.00;0.00;;;;;;;11.89;57.57;98897.94;5305801;26;33071;-81
2023/04/02 00:04:21;;;;;;;0.00;0.00;;;;;;;11.98;57.32;98886.78;5305887;26;34165;-81
2023/04/02 00:07:14;;;;;;;0.00;0.00;;;;;;;11.86;57.59;98892.84;5306369;26;33867;-81
2023/04/02 00:09:42;;;;;;;0.00;0.00;;;;;;;11.84;57.68;98893.91;5312436;26;33205;-81
2023/04/02 00:12:14;;;;;;;0.00;0.00;;;;;;;12.08;56.95;98894.13;5305547;26;33698;-80
2023/04/02 00:14:51;;;;;;;0.08;0.08;;;;;;;12.13;56.71;98890.22;5288268;26;33672;-83
2023/04/02 00:17:27;;;;;;;0.00;0.00;;;;;;;12.13;56.78;98894.69;5305688;26;33000;-81
2023/04/02 00:20:05;;;;;;;0.00;0.00;;;;;;;12.23;56.45;98901.06;5286468;26;33578;-82
2023/04/02 00:22:33;;;;;;;0.25;0.25;;;;;;;12.31;56.19;98896.13;5287670;26;33110;-82
2023/04/02 00:25:10;;;;;;;0.73;0.73;;;;;;;12.32;56.25;98897.81;5322324;26;32874;-82
2023/04/02 00:27:38;;;;;;;0.20;0.20;;;;;;;12.19;56.37;98905.72;5305013;26;33179;-82
2023/04/02 00:30:07;;;;;;;0.00;0.00;;;;;;;12.05;57.04;98897.81;5323492;26;33945;-82
2023/04/02 00:32:36;;;;;;;0.00;0.00;;;;;;;12.36;55.84;98906.44;5287339;26;33915;-82
2023/04/02 00:35:10;;;;;;;0.00;0.00;;;;;;;12.13;56.89;98907.91;5286454;26;32619;-82
2023/04/02 00:37:41;;;;;;;0.00;0.00;;;;;;;12.24;56.21;98900.97;5301764;26;104198;-82
2023/04/02 00:40:20;;;;;;;0.00;0.00;;;;;;;12.08;56.72;98904.72;5306090;26;33664;-82
2023/04/02 00:42:53;;;;;;;0.00;0.00;;;;;;;12.15;56.71;98906.00;5286583;26;33558;-82
2023/04/02 00:45:24;;;;;;;0.00;0.00;;;;;;;12.09;56.66;98915.19;5287855;26;33757;-81
2023/04/02 00:47:52;;;;;;;0.00;0.00;;;;;;;12.12;56.53;98915.00;5304872;26;33504;-82
2023/04/02 00:50:21;;;;;;;0.00;0.00;;;;;;;12.08;56.45;98918.78;5304825;26;34629;-82
2023/04/02 00:52:52;;;;;;;0.00;0.00;;;;;;;11.98;57.16;98923.81;5305203;26;33809;-82
2023/04/02 00:55:38;;;;;;;1.75;0.13;;;;;;;11.99;56.96;98922.84;5287930;26;32907;-82
2023/04/02 00:58:26;;;;;;;0.00;0.00;;;;;;;12.12;56.59;98925.59;5287027;26;32516;-81
2023/04/02 01:00:55;;;;;;;0.52;0.52;;;;;;;12.10;56.66;98921.31;5305607;26;34316;-81
2023/04/02 01:03:33;;;;;;;0.00;0.00;;;;;;;11.87;57.37;98921.00;5305375;26;35014;-82
2023/04/02 01:06:11;;;;;;;0.05;0.05;;;;;;;11.84;58.02;98915.91;5322702;26;33365;-82
2023/04/02 01:09:02;;;;;;;0.00;0.00;;;;;;;11.95;57.74;98923.16;5287473;26;32873;-81
2023/04/02 01:11:42;;;;;;;2.42;0.20;;;;;;;11.98;57.68;98915.03;5342989;26;33968;-82
2023/04/02 01:14:54;;;;;;;0.00;0.00;;;;;;;12.12;57.29;98908.88;5323572;26;33975;-82
2023/04/02 01:17:31;;;;;;;0.10;0.10;;;;;;;11.98;57.87;98913.22;5299833;26;33817;-82
2023/04/02 01:20:11;;;;;;;0.00;0.00;;;;;;;12.15;57.19;98914.78;5322553;26;33280;-82
2023/04/02 01:22:58;;;;;;;0.00;0.00;;;;;;;12.04;57.99;98917.28;5338837;26;33813;-82
2023/04/02 01:25:37;;;;;;;0.00;0.00;;;;;;;12.11;57.67;98920.41;5320517;26;33935;-82
2023/04/02 01:28:20;;;;;;;0.00;0.00;;;;;;;12.01;57.79;98926.28;5304634;26;33432;-82
2023/04/02 01:30:55;;;;;;;0.00;0.00;;;;;;;12.12;57.38;98930.88;5305372;26;35472;-83
2023/04/02 01:33:29;;;;;;;0.00;0.00;;;;;;;12.25;56.94;98925.66;5323158;26;34251;-83
2023/04/02 01:36:09;;;;;;;;;;;;;;;12.05;57.20;98930.41;5287069;26;33269;-83
2023/04/02 01:38:49;;;;;;;0.13;0.13;;;;;;;12.18;57.08;98926.97;5322960;26;34543;-82
2023/04/02 01:41:50;;;;;;;0.98;0.65;;;;;;;12.20;56.82;98927.72;5305041;26;32993;-83
2023/04/02 01:44:27;;;;;;;0.00;0.00;;;;;;;12.19;56.86;98924.22;5288737;26;33718;-83
2023/04/02 01:46:59;;;;;;;0.00;0.00;;;;;;;12.26;56.55;98932.66;5287093;26;32958;-82
2023/04/02 01:49:28;;;;;;;;;;;;;;;12.13;57.26;98927.28;5322934;26;34144;-82
2023/04/02 01:51:57;;;;;;;0.00;0.00;;;;;;;12.12;57.60;98930.03;5286746;26;32316;-82
2023/04/02 01:54:27;;;;;;;0.00;0.00;;;;;;;12.16;57.51;98942.97;5323161;26;33949;-82
2023/04/02 01:56:56;;;;;;;0.00;0.00;;;;;;;12.17;57.37;98938.53;5305654;26;35924;-83
2023/04/02 01:59:25;;;;;;;0.00;0.00;;;;;;;12.22;57.17;98936.44;5304860;26;34126;-83
2023/04/02 02:02:03;;;;;;;2.30;0.28;;;;;;;12.20;57.05;98933.91;5304380;26;32223;-83
2023/04/02 02:04:32;;;;;;;0.00;0.00;;;;;;;12.25;56.68;98946.84;5286344;26;33122;-82
2023/04/02 02:07:02;;;;;;;0.10;0.10;;;;;;;12.09;56.80;98943.44;5304949;26;33977;-82
2023/04/02 02:09:33;;;;;;;0.00;0.00;;;;;;;12.12;56.58;98945.91;5304412;26;34568;-82
2023/04/02 02:12:03;;;;;;;0.00;0.00;;;;;;;11.91;57.04;98943.66;5287234;26;31919;-82
2023/04/02 02:14:31;;;;;;;1.00;0.47;;;;;;;11.98;56.74;98950.28;5304362;26;33425;-82
2023/04/02 02:17:01;;;;;;;0.00;0.00;;;;;;;11.85;57.04;98946.69;5323206;26;33629;-82
2023/04/02 02:19:50;;;;;;;0.00;0.00;;;;;;;11.87;56.84;98949.22;5305491;26;33846;-82
2023/04/02 02:22:37;;;;;;;0.20;0.03;;;;;;;11.67;57.52;98951.28;5287271;26;32700;-82
2023/04/02 02:25:12;;;;;;;0.00;0.00;;;;;;;11.72;57.40;98953.66;5305267;26;33996;-82
2023/04/02 02:27:54;;;;;;;0.10;0.10;;;;;;;11.73;57.57;98947.44;5306277;26;34359;-82
2023/04/02 02:30:42;;;;;;;0.00;0.00;;;;;;;11.67;57.57;98946.00;5341647;26;34318;-82
2023/04/02 02:33:21;;;;;;;0.00;0.00;;;;;;;11.46;58.36;98948.19;5287088;26;33801;-83
2023/04/02 02:36:01;;;;;;;0.10;0.10;;;;;;;11.43;58.59;98944.84;5305402;26;32439;-84
2023/04/02 02:38:32;;;;;;;0.13;0.13;;;;;;;11.25;59.42;98954.75;5324168;26;33277;-83
2023/04/02 02:41:25;;;;;;;0.20;0.20;;;;;;;11.15;59.86;98957.09;5306208;26;32833;-83
2023/04/02 02:44:09;;;;;;;0.00;0.00;;;;;;;11.31;59.56;98959.69;5323559;26;32827;-83
2023/04/02 02:46:45;;;;;;;0.30;0.30;;;;;;;11.51;58.77;98964.59;5323463;26;33625;-83
2023/04/02 02:49:17;;;;;;;0.00;0.00;;;;;;;11.71;58.20;98963.38;5287465;26;33769;-83
2023/04/02 02:51:52;;;;;;;0.98;0.62;;;;;;;11.74;58.13;98963.19;5287832;26;33890;-83
2023/04/02 02:54:24;;;;;;;0.17;0.17;;;;;;;11.54;58.96;98955.66;5306628;26;33958;-83
2023/04/02 02:56:56;;;;;;;0.13;0.13;;;;;;;11.72;58.88;98953.66;5316220;26;33822;-83
2023/04/02 02:59:28;;;;;;;0.10;0.10;;;;;;;11.63;59.09;98949.81;5320405;26;34354;-83
2023/04/02 03:01:56;;;;;;;0.00;0.00;;;;;;;11.64;59.24;98950.66;5287515;26;32704;-83
2023/04/02 03:04:24;;;;;;;0.00;0.00;;;;;;;11.70;58.80;98950.25;5286832;26;32555;-82
2023/04/02 03:06:55;;;;;;;0.10;0.10;;;;;;;11.73;58.92;98955.38;5287367;26;32486;-82
2023/04/02 03:09:34;;;;;;;0.00;0.00;;;;;;;11.42;59.78;98951.94;5323831;26;33917;-82
2023/04/02 03:12:12;;;;;;;0.00;0.00;;;;;;;11.60;59.57;98954.41;5323751;26;34203;-83
2023/04/02 03:14:45;;;;;;;0.00;0.00;;;;;;;11.63;59.54;98946.28;5323650;26;32611;-82
2023/04/02 03:17:36;;;;;;;0.10;0.10;;;;;;;11.69;58.88;98949.41;5305766;26;33643;-82
2023/04/02 03:20:39;;;;;;;0.00;0.00;;;;;;;11.51;59.94;98946.09;5287191;26;32947;-82
2023/04/02 03:23:21;;;;;;;0.00;0.00;;;;;;;11.68;59.52;98952.13;5260245;26;33701;-82
2023/04/02 03:25:58;;;;;;;0.00;0.00;;;;;;;11.44;59.87;98950.06;5287152;26;32723;-82
2023/04/02 03:28:33;;;;;;;0.28;0.28;;;;;;;11.49;59.65;98950.63;5323747;26;34363;-82
2023/04/02 03:31:05;;;;;;;0.20;0.20;;;;;;;11.60;59.39;98962.34;5305986;26;34505;-82
2023/04/02 03:33:41;;;;;;;0.00;0.00;;;;;;;11.65;59.16;98968.22;5287353;26;33499;-82
2023/04/02 03:36:45;;;;;;;0.03;0.03;;;;;;;11.72;58.85;98959.78;5287530;26;33550;-82
2023/04/02 03:39:38;;;;;;;0.00;0.00;;;;;;;11.67;58.89;98959.22;5260048;27;32080;-82
2023/04/02 03:42:20;;;;;;;0.00;0.00;;;;;;;11.50;59.18;98964.72;5283510;26;34507;-82
2023/04/02 03:45:23;;;;;;;0.00;0.00;;;;;;;11.41;59.21;98968.75;5305637;26;34017;-82
2023/04/02 03:48:00;;;;;;;0.00;0.00;;;;;;;11.43;59.16;98974.78;5285005;26;31779;-81
2023/04/02 03:50:33;;;;;;;0.17;0.17;;;;;;;11.36;59.63;98973.47;5321303;26;33669;-83
2023/04/02 03:53:02;;;;;;;;;;;;;;;11.32;59.75;98985.16;5302316;26;34031;-83
2023/04/02 03:55:35;;;;;;;0.00;0.00;;;;;;;11.21;59.95;98974.38;5301601;26;33861;-82
2023/04/02 03:58:10;;;;;;;0.03;0.03;;;;;;;11.35;59.39;98982.34;5303097;26;33391;-83
2023/04/02 04:00:40;;;;;;;;;;;;;;;11.37;59.19;98980.44;5340507;26;33545;-82
2023/04/02 04:03:12;;;;;;;0.10;0.10;;;;;;;11.45;58.87;98986.13;5303546;26;33701;-82
2023/04/02 04:06:07;;;;;;;0.00;0.00;;;;;;;11.30;59.22;98989.69;5284638;26;33656;-82
2023/04/02 04:09:13;;;;;;;0.10;0.10;;;;;;;11.09;60.18;98990.94;5302890;26;34748;-82
2023/04/02 04:11:49;;;;;;;0.05;0.05;;;;;;;11.16;59.41;98987.03;5303681;26;33280;-81
2023/04/02 04:14:21;;;;;;;0.00;0.00;;;;;;;11.02;59.86;98991.31;5266860;26;35477;-81
2023/04/02 04:16:52;;;;;;;;;;;;;;;11.11;59.20;98996.97;5321273;26;33581;-81
2023/04/02 04:19:28;;;;;;;0.00;0.00;;;;;;;10.88;59.90;99004.47;5303401;26;33585;-81
2023/04/02 04:22:09;;;;;;;0.40;0.40;;;;;;;10.72;60.64;99003.63;5266550;26;32454;-80
2023/04/02 04:24:44;;;;;;;0.00;0.00;;;;;;;10.77;60.64;99002.44;5304026;26;34749;-81
2023/04/02 04:27:32;;;;;;;0.00;0.00;;;;;;;10.72;60.65;99003.63;5322328;26;34748;-81
2023/04/02 04:30:19;;;;;;;0.00;0.00;;;;;;;10.57;61.46;99017.72;5304419;26;33712;-81
2023/04/02 04:32:56;;;;;;;0.00;0.00;;;;;;;10.82;60.58;99003.97;5320890;26;33643;-81
2023/04/02 04:35:37;;;;;;;2.35;0.40;;;;;;;10.69;61.42;99009.13;5322270;26;34686;-81
2023/04/02 04:38:20;;;;;;;0.65;0.65;;;;;;;10.43;62.21;99019.31;5321361;26;34184;-82
2023/04/02 04:40:59;;;;;;;0.00;0.00;;;;;;;10.66;61.59;99025.13;5303316;26;32417;-82
2023/04/02 04:43:45;;;;;;;0.00;0.00;;;;;;;10.63;62.15;99030.56;5303830;26;32803;-82
2023/04/02 04:46:19;;;;;;;0.00;0.00;;;;;;;10.68;62.29;99033.78;5302667;26;32211;-82
2023/04/02 04:48:54;;;;;;;;;;;;;;;10.85;61.77;99020.50;5303671;26;34399;-82
2023/04/02 04:51:28;;;;;;;0.10;0.10;;;;;;;10.84;62.40;99024.06;5303241;26;33804;-82
2023/04/02 04:54:00;;;;;;;0.00;0.00;;;;;;;10.91;62.30;99024.56;5302722;26;33967;-82
2023/04/02 04:56:32;;;;;;;0.00;0.00;;;;;;;10.82;63.10;99018.00;5303967;26;33650;-82
2023/04/02 04:59:25;;;;;;;0.00;0.00;;;;;;;11.01;62.47;99016.03;5303393;26;34157;-82
2023/04/02 05:02:05;;;;;;;0.37;0.37;;;;;;;11.10;62.44;99014.62;5303398;26;34059;-82
2023/04/02 05:04:41;;;;;;;0.00;0.00;;;;;;;11.62;61.10;99015.97;5320676;26;34624;-83
2023/04/02 05:07:25;;;;;;;0.00;0.00;;;;;;;11.63;60.71;99021.19;5303858;26;33179;-83
2023/04/02 05:10:03;;;;;;;0.00;0.00;;;;;;;12.12;59.06;99018.22;5303247;26;33759;-83
2023/04/02 05:12:44;;;;;;;0.77;0.47;;;;;;;12.26;58.89;99026.13;5320535;26;33013;-82
2023/04/02 05:15:21;;;;;;;0.00;0.00;;;;;;;12.54;57.70;99016.44;5320978;26;33223;-82
2023/04/02 05:18:00;;;;;;;0.00;0.00;;;;;;;12.04;59.16;99023.97;5320831;26;32982;-81
2023/04/02 05:20:32;;;;;;;0.22;0.10;;;;;;;12.12;59.04;99026.16;5303064;26;34221;-82
2023/04/02 05:23:12;;;;;;;0.00;0.00;;;;;;;12.37;57.82;99020.16;5320940;26;32564;-82
2023/04/02 05:25:58;;;;;;;0.00;0.00;;;;;;;12.86;56.67;99026.72;5303489;26;33964;-82
2023/04/02 05:28:33;;;;;;;0.10;0.10;;;;;;;12.31;58.29;99031.13;5285169;26;34113;-82
2023/04/02 05:31:27;;;;;;;0.00;0.00;;;;;;;12.57;58.06;99032.97;5320929;26;34846;-81
2023/04/02 05:34:02;;;;;;;0.00;0.00;;;;;;;12.62;58.15;99029.16;5303618;26;33291;-82
2023/04/02 05:36:32;;;;;;;2.33;0.20;;;;;;;12.56;58.14;99041.84;5320789;26;33836;-82
2023/04/02 05:39:09;;;;;;;0.08;0.08;;;;;;;12.45;58.38;99033.75;5319791;26;33569;-83
2023/04/02 05:41:43;;;;;;;0.00;0.00;;;;;;;12.92;56.89;99037.78;5302680;26;33614;-82
2023/04/02 05:44:19;;;;;;;0.00;0.00;;;;;;;13.08;56.56;99034.97;5302410;26;34650;-82
2023/04/02 05:46:56;;;;;;;0.00;0.00;;;;;;;12.73;57.68;99047.87;5320627;26;33399;-81
2023/04/02 05:49:35;;;;;;;0.08;0.08;;;;;;;13.23;55.99;99041.09;5285867;26;32842;-82
2023/04/02 05:52:20;;;;;;;0.00;0.00;;;;;;;13.15;56.43;99041.59;5301608;26;33205;-82
2023/04/02 05:57:50;;;;;;;0.15;0.15;;;;;;;13.33;56.36;99052.78;5320756;26;33847;-83
2023/04/02 06:00:47;;;;;;;0.00;0.00;;;;;;;13.15;56.59;99053.97;5290845;26;33258;-81
2023/04/02 06:03:34;;;;;;;0.00;0.00;;;;;;;13.21;56.96;99049.13;5283198;26;33550;-80
2023/04/02 06:06:20;;;;;;;0.00;0.00;;;;;;;13.51;56.20;99046.25;5319333;26;33637;-80
2023/04/02 06:08:56;;;;;;;0.00;0.00;;;;;;;13.50;56.26;99046.34;5338130;26;33603;-80
2023/04/02 06:11:40;;;;;;;4.78;0.43;;;;;;;13.54;55.74;99040.75;5320126;26;33824;-82
2023/04/02 06:14:15;;;;;;;0.00;0.00;;;;;;;13.51;55.80;99046.25;5301790;26;34071;-80
2023/04/02 06:16:48;;;;;;;0.00;0.00;;;;;;;13.17;57.13;99052.94;5282650;26;32923;-80
2023/04/02 06:19:30;;;;;;;0.13;0.13;;;;;;;13.22;57.27;99060.59;5303133;26;33309;-80
2023/04/02 06:22:37;;;;;;;0.00;0.00;;;;;;;13.38;56.59;99061.28;5285792;26;35440;-80
2023/04/02 06:25:20;;;;;;;0.20;0.20;;;;;;;13.13;57.22;99061.19;5318739;26;35348;-80
2023/04/02 06:27:59;;;;;;;;;;;;;;;13.02;57.76;99062.75;5297546;26;33896;-81
2023/04/02 06:30:39;;;;;;;0.00;0.00;;;;;;;12.88;58.27;99062.78;5320019;26;34585;-80
2023/04/02 06:33:12;;;;;;;0.45;0.45;;;;;;;13.19;57.23;99066.91;5283591;26;35098;-80
2023/04/02 06:35:46;;;;;;;0.00;0.00;;;;;;;13.37;57.04;99064.88;5301444;26;33916;-81
2023/04/02 06:38:30;;;;;;;0.00;0.00;;;;;;;13.49;56.92;99074.69;5320074;26;33594;-81
2023/04/02 06:41:09;;;;;;;0.00;0.00;;;;;;;13.47;56.96;99073.91;5300867;26;32448;-81
2023/04/02 06:43:51;;;;;;;0.00;0.00;;;;;;;13.74;55.93;99075.66;5300136;26;33073;-81
2023/04/02 06:46:30;;;;;;;0.15;0.15;;;;;;;13.60;56.83;99075.75;5299719;26;33933;-81
2023/04/02 06:49:18;;;;;;;0.00;0.00;;;;;;;13.74;56.81;99078.31;5300752;26;34117;-81
2023/04/02 06:54:30;;;;;;;0.00;0.00;;;;;;;13.95;56.30;99079.50;5319540;26;33430;-82
2023/04/02 06:57:07;;;;;;;0.22;0.10;;;;;;;14.18;55.52;99077.91;5318526;26;34876;-81
2023/04/02 07:02:35;;;;;;;0.00;0.00;;;;;;;14.27;55.67;99076.41;5301885;26;33068;-81
2023/04/02 07:05:09;;;;;;;0.00;0.00;;;;;;;14.28;54.87;99075.44;5305691;26;349195;-81
2023/04/02 07:07:39;;;;;;;0.00;0.00;;;;;;;14.43;55.12;99071.72;5319960;26;33555;-82
2023/04/02 07:10:14;;;;;;;0.85;0.40;;;;;;;14.39;55.59;99078.22;5321905;26;34606;-81
2023/04/02 07:12:46;;;;;;;0.00;0.00;;;;;;;14.34;54.99;99086.50;5320841;26;34033;-81
2023/04/02 07:15:22;;;;;;;0.00;0.00;;;;;;;14.64;53.92;99073.84;5303582;26;34186;-81
2023/04/02 07:18:00;;;;;;;0.03;0.03;;;;;;;14.39;54.16;99080.88;5339458;26;34755;-81
2023/04/02 07:20:37;;;;;;;0.35;0.35;;;;;;;14.28;54.80;99083.41;5302336;26;32412;-81
2023/04/02 07:23:09;;;;;;;0.70;0.40;;;;;;;13.90;55.96;99089.56;5321003;26;33665;-80
2023/04/02 07:25:42;;;;;;;0.10;0.10;;;;;;;13.93;55.73;99092.03;5302768;26;33945;-80
2023/04/02 07:28:19;;;;;;;0.00;0.00;;;;;;;13.68;56.53;99094.66;5303742;26;32851;-81
2023/04/02 07:33:35;;;;;;;0.00;0.00;;;;;;;13.91;56.28;99096.59;5323505;26;33417;-81
2023/04/02 07:36:04;;;;;;;0.00;0.00;;;;;;;14.29;55.31;99104.56;5302138;26;33523;-81
2023/04/02 07:38:33;;;;;;;0.00;0.00;;;;;;;13.96;56.34;99094.47;5302556;26;33790;-81
2023/04/02 07:41:05;;;;;;;0.00;0.00;;;;;;;14.03;55.80;99100.22;5321046;26;34334;-80
2023/04/02 07:43:35;;;;;;;;;;;;;;;14.53;55.26;99104.69;5319829;26;32494;-81
2023/04/02 07:46:08;;;;;;;0.00;0.00;;;;;;;14.88;53.66;99103.94;5302240;26;34327;-80
2023/04/02 07:48:42;;;;;;;0.17;0.17;;;;;;;14.57;54.64;99107.94;5303970;26;33870;-80
2023/04/02 07:51:19;;;;;;;0.00;0.00;;;;;;;14.07;56.07;99105.19;5303312;26;33382;-80
2023/04/02 07:53:56;;;;;;;0.00;0.00;;;;;;;14.80;54.02;99103.63;5284768;26;32623;-80
2023/04/02 07:56:28;;;;;;;0.30;0.30;;;;;;;14.19;55.77;99110.59;5322400;26;33664;-80
2023/04/02 07:59:03;;;;;;;0.20;0.20;;;;;;;14.90;53.50;99106.47;5302794;26;32936;-80
2023/04/02 08:01:34;;;;;;;0.17;0.17;;;;;;;14.92;53.17;99110.75;5284662;26;32224;-80
2023/04/02 08:04:06;;;;;;;0.20;0.20;;;;;;;14.92;53.46;99110.75;5303171;26;33958;-81
2023/04/02 08:06:35;;;;;;;0.00;0.00;;;;;;;14.42;55.22;99117.81;5303525;26;33800;-80
2023/04/02 08:09:09;;;;;;;0.17;0.10;;;;;;;14.07;56.26;99118.47;5321778;26;33853;-80
2023/04/02 08:11:45;;;;;;;0.37;0.37;;;;;;;14.16;55.93;99121.47;5303555;26;32321;-80
2023/04/02 08:14:19;;;;;;;0.00;0.00;;;;;;;14.41;55.50;99120.59;5303997;26;33872;-80
2023/04/02 08:16:58;;;;;;;0.10;0.10;;;;;;;14.82;54.15;99121.19;5339938;26;34833;-81
2023/04/02 08:19:39;;;;;;;0.00;0.00;;;;;;;14.71;54.83;99122.91;5340448;26;33663;-80
2023/04/02 08:22:27;;;;;;;0.10;0.10;;;;;;;14.89;54.56;99131.38;5305299;26;32400;-81
2023/04/02 08:25:08;;;;;;;0.00;0.00;;;;;;;14.96;54.08;99136.16;5302982;26;34127;-81
2023/04/02 08:27:46;;;;;;;0.20;0.20;;;;;;;14.97;53.85;99135.19;5286043;26;32667;-81
2023/04/02 08:30:18;;;;;;;0.17;0.17;;;;;;;14.62;55.37;99137.69;5285394;26;33691;-81
2023/04/02 08:38:19;;;;;;;0.30;0.25;;;;;;;15.07;53.52;99136.22;5339733;26;33841;-81
2023/04/02 08:40:53;;;;;;;0.00;0.00;;;;;;;15.31;53.03;99143.34;5302178;26;33110;-81
2023/04/02 08:43:39;;;;;;;0.00;0.00;;;;;;;15.69;51.88;99137.88;5301627;26;33780;-81
2023/04/02 08:46:21;;;;;;;0.30;0.28;;;;;;;15.72;51.96;99142.97;5320306;26;33174;-81
2023/04/02 08:49:14;;;;;;;0.10;0.10;;;;;;;14.91;54.92;99151.59;5340022;26;34795;-80
2023/04/02 08:51:45;;;;;;;0.00;0.00;;;;;;;15.30;53.95;99149.63;5301875;26;33158;-81
2023/04/02 08:54:19;;;;;;;0.10;0.10;;;;;;;15.35;53.18;99150.16;5283924;26;32274;-81
2023/04/02 08:59:38;;;;;;;0.60;0.60;;;;;;;15.72;52.44;99160.75;5321341;26;33922;-81
2023/04/02 09:02:22;;;;;;;0.57;0.57;;;;;;;15.84;51.93;99157.16;5283575;26;33389;-80
2023/04/02 09:07:47;;;;;;;0.43;0.22;;;;;;;15.76;52.21;99155.09;5303156;26;33292;-80
2023/04/02 09:10:19;;;;;;;0.17;0.17;;;;;;;16.08;50.94;99147.28;5302218;26;34741;-81
2023/04/02 09:12:57;;;;;;;0.30;0.30;;;;;;;16.10;51.78;99153.38;5284967;26;34617;-81
2023/04/02 09:15:35;;;;;;;0.00;0.00;;;;;;;16.06;51.21;99151.91;5322272;26;35788;-81
2023/04/02 09:18:16;;;;;;;0.05;0.05;;;;;;;16.30;50.18;99153.66;5320541;26;33075;-80
2023/04/02 09:20:54;;;;;;;1.52;0.98;;;;;;;16.11;51.59;99159.53;5321763;26;33631;-81
2023/04/02 09:23:26;;;;;;;0.10;0.10;;;;;;;15.84;52.26;99162.47;5301877;26;32673;-80
2023/04/02 09:26:19;;;;;;;0.20;0.20;;;;;;;15.90;52.44;99164.66;5302050;26;33795;-81
2023/04/02 09:28:53;;;;;;;0.00;0.00;;;;;;;15.89;52.22;99165.66;5303184;26;33577;-81
2023/04/02 09:31:38;;;;;;;0.35;0.35;;;;;;;16.16;52.29;99157.38;5320330;26;32644;-81
2023/04/02 09:34:33;;;;;;;0.03;0.03;;;;;;;16.27;51.88;99164.53;5302240;26;33969;-81
2023/04/02 09:37:17;;;;;;;0.10;0.10;;;;;;;16.24;52.31;99176.28;5303751;26;34403;-81
2023/04/02 09:39:47;;;;;;;0.13;0.13;;;;;;;16.19;51.94;99174.91;5320078;26;34557;-81
2023/04/02 09:42:35;;;;;;;0.13;0.13;;;;;;;16.26;51.10;99174.34;5302678;26;33768;-81
2023/04/02 09:45:13;;;;;;;;;;;;;;;16.53;50.65;99176.69;5286638;26;33695;-80
2023/04/02 09:47:55;;;;;;;0.00;0.00;;;;;;;16.57;50.12;99178.16;5319327;26;33242;-80
2023/04/02 09:50:34;;;;;;;0.00;0.00;;;;;;;16.31;51.67;99188.16;5302479;26;33479;-80
2023/04/02 09:53:32;;;;;;;0.00;0.00;;;;;;;16.10;51.62;99185.31;5321466;26;33352;-80
2023/04/02 09:56:12;;;;;;;0.05;0.05;;;;;;;16.13;51.92;99184.22;5284025;26;33364;-81
2023/04/02 10:01:52;;;;;;;1.15;0.80;;;;;;;15.87;52.50;99200.37;5322643;26;34030;-80
2023/04/02 10:04:46;;;;;;;0.00;0.00;;;;;;;15.84;52.16;99202.41;5320893;26;33704;-83
2023/04/02 10:07:38;;;;;;;0.05;0.05;;;;;;;15.72;54.45;99209.50;5302384;26;33529;-81
2023/04/02 10:10:20;;;;;;;0.00;0.00;;;;;;;15.69;54.54;99204.41;5286061;26;33447;-81
2023/04/02 10:13:00;;;;;;;1.37;0.45;;;;;;;15.82;55.47;99201.69;5301114;26;35016;-81
2023/04/02 10:15:45;;;;;;;2.12;0.30;;;;;;;15.96;54.67;99190.84;5314965;26;34244;-81
2023/04/02 10:18:46;;;;;;;0.00;0.00;;;;;;;16.22;54.38;99198.66;5299575;26;33470;-81
2023/04/02 10:21:28;;;;;;;0.30;0.30;;;;;;;16.35;52.91;99189.62;5302280;26;33045;-81
2023/04/02 10:24:04;;;;;;;0.40;0.40;;;;;;;16.29;52.54;99183.94;5284813;26;32727;-81
2023/04/02 10:27:16;;;;;;;0.35;0.25;;;;;;;16.44;53.01;99182.72;5320328;26;33565;-82
2023/04/02 10:30:11;;;;;;;3.12;1.23;;;;;;;16.29;54.81;99178.59;5292523;26;33695;-82
2023/04/02 10:32:53;;;;;;;0.30;0.22;;;;;;;16.62;53.92;99181.31;5284996;26;32974;-82
2023/04/02 10:35:50;;;;;;;0.10;0.10;;;;;;;16.26;54.57;99185.00;5339548;26;36219;-82
2023/04/02 10:38:45;;;;;;;0.37;0.37;;;;;;;16.29;53.39;99179.44;5337399;26;33028;-82
2023/04/02 10:41:33;;;;;;;0.25;0.25;;;;;;;16.76;51.95;99176.72;5288838;26;32832;-81
2023/04/02 10:44:18;;;;;;;0.25;0.25;;;;;;;16.62;53.03;99181.31;5320885;26;33555;-81
2023/04/02 10:46:51;;;;;;;0.57;0.57;;;;;;;16.56;52.73;99173.75;5284207;26;33351;-82
2023/04/02 10:49:26;;;;;;;0.00;0.00;;;;;;;16.67;50.83;99172.09;5302175;26;33699;-81
2023/04/02 10:52:08;;;;;;;0.30;0.30;;;;;;;17.24;49.36;99174.62;5340578;26;34151;-81
2023/04/02 10:54:49;;;;;;;0.57;0.20;;;;;;;17.43;49.03;99165.13;5321587;26;33727;-82
2023/04/02 10:57:33;;;;;;;0.13;0.13;;;;;;;17.89;48.27;99162.16;5307289;26;33671;-82
2023/04/02 11:00:11;;;;;;;0.35;0.35;;;;;;;18.13;49.44;99156.56;5321352;26;34189;-82
2023/04/02 11:03:06;;;;;;;1.00;0.90;;;;;;;18.43;47.32;99166.47;5301814;26;32734;-81
2023/04/02 11:05:47;;;;;;;0.37;0.37;;;;;;;18.59;47.39;99166.81;5322353;26;33325;-81
2023/04/02 11:08:35;;;;;;;0.20;0.20;;;;;;;18.64;46.29;99164.59;5301877;26;33845;-81
2023/04/02 11:11:20;;;;;;;0.30;0.30;;;;;;;18.76;45.21;99168.06;5302784;26;33102;-82
2023/04/02 11:14:06;;;;;;;0.40;0.40;;;;;;;19.13;44.26;99162.13;5303513;26;33583;-81
2023/04/02 11:19:15;;;;;;;0.20;0.20;;;;;;;19.57;43.36;99163.47;5322046;26;33130;-82
2023/04/02 11:22:00;;;;;;;0.43;0.20;;;;;;;19.88;43.65;99161.53;5340393;26;33691;-81
2023/04/02 11:24:47;;;;;;;0.47;0.35;;;;;;;18.90;44.15;99164.19;5322187;26;34279;-81
2023/04/02 11:27:33;;;;;;;0.20;0.20;;;;;;;18.78;44.44;99162.56;5323887;26;33703;-80
2023/04/02 11:30:03;;;;;;;0.10;0.10;;;;;;;18.36;45.14;99159.94;5320610;26;33554;-81
2023/04/02 11:32:48;;;;;;;0.10;0.10;;;;;;;18.64;44.66;99155.72;5322714;26;34529;-81
2023/04/02 11:35:34;;;;;;;0.65;0.20;;;;;;;18.26;45.08;99145.69;5338612;26;33518;-82
2023/04/02 11:38:10;;;;;;;0.00;0.00;;;;;;;18.30;45.34;99150.62;5338206;26;33755;-81
2023/04/02 11:40:53;;;;;;;0.10;0.10;;;;;;;18.20;46.93;99146.22;5302420;26;34746;-80
2023/04/02 11:43:32;;;;;;;0.00;0.00;;;;;;;18.86;44.67;99144.03;5340841;26;33664;-80
2023/04/02 11:46:16;;;;;;;0.10;0.10;;;;;;;18.43;44.85;99150.44;5302705;26;33452;-80
2023/04/02 11:49:20;;;;;;;0.00;0.00;;;;;;;18.46;45.13;99152.81;5319780;26;33684;-80
2023/04/02 11:51:57;;;;;;;0.15;0.13;;;;;;;18.83;44.95;99153.16;5298356;26;32700;-80
2023/04/02 11:54:41;;;;;;;0.73;0.20;;;;;;;18.33;45.46;99146.87;5322590;26;34027;-81
2023/04/02 11:57:39;;;;;;;0.13;0.10;;;;;;;18.50;45.25;99146.22;5320909;26;34211;-81
2023/04/02 12:03:55;;;;;;;0.10;0.08;;;;;;;18.45;44.92;99143.09;5318271;26;34427;-81
2023/04/02 12:06:47;;;;;;;0.08;0.08;;;;;;;19.31;42.74;99135.53;5313736;27;34818;-82
2023/04/02 12:09:25;;;;;;;0.05;0.05;;;;;;;19.82;42.22;99138.00;5297557;27;34254;-82
2023/04/02 12:12:02;;;;;;;0.20;0.20;;;;;;;19.84;41.73;99127.13;5280815;27;32854;-81
2023/04/02 12:14:44;;;;;;;0.05;0.05;;;;;;;19.64;42.33;99137.84;5283500;27;34434;-82
2023/04/02 12:17:27;;;;;;;0.47;0.35;;;;;;;19.55;41.87;99135.97;5294470;27;34710;-81
2023/04/02 12:20:09;;;;;;;0.80;0.80;;;;;;;19.50;43.49;99122.16;5297515;27;32995;-82
2023/04/02 12:22:54;;;;;;;0.60;0.40;;;;;;;19.59;41.33;99124.00;5315875;26;34836;-81
2023/04/02 12:25:39;;;;;;;0.35;0.28;;;;;;;19.96;41.05;99112.59;5316551;27;34057;-81
2023/04/02 12:28:13;;;;;;;0.25;0.25;;;;;;;20.26;41.11;99116.91;5282225;27;32994;-81
2023/04/02 12:30:41;;;;;;;0.20;0.20;;;;;;;20.44;39.88;99108.94;5315983;26;33829;-81
2023/04/02 12:33:36;;;;;;;0.25;0.25;;;;;;;20.09;40.39;99105.12;5294471;27;33049;-82
2023/04/02 12:36:21;;;;;;;0.00;0.00;;;;;;;20.52;40.80;99106.41;5280613;27;34644;-79
2023/04/02 12:38:56;;;;;;;0.32;0.32;;;;;;;20.74;38.89;99096.28;5316520;27;35026;-81
2023/04/02 12:41:33;;;;;;;0.30;0.30;;;;;;;20.56;39.51;99098.94;5282072;27;34835;-82
2023/04/02 12:44:15;;;;;;;0.28;0.28;;;;;;;20.27;39.59;99104.34;5316550;26;32347;-82
2023/04/02 12:49:36;;;;;;;0.00;0.00;;;;;;;19.46;40.83;99102.00;5299700;26;34477;-81
2023/04/02 12:52:09;;;;;;;0.00;0.00;;;;;;;19.60;41.45;99098.09;5298369;27;33070;-82
2023/04/02 12:54:57;;;;;;;4.15;1.58;;;;;;;19.77;40.03;99094.72;5316240;27;34725;-82
2023/04/02 12:57:27;;;;;;;0.17;0.17;;;;;;;19.42;42.75;99098.78;5298478;27;33883;-81
2023/04/02 13:00:19;;;;;;;0.00;0.00;;;;;;;19.34;41.26;99104.00;5317959;26;34028;-82
2023/04/02 13:02:51;;;;;;;0.55;0.10;;;;;;;19.89;41.75;99087.34;5279358;27;33700;-82
2023/04/02 13:05:42;;;;;;;0.25;0.20;;;;;;;19.62;40.34;99105.03;5294257;26;34212;-82
2023/04/02 13:08:41;;;;;;;0.30;0.30;;;;;;;20.34;39.76;99092.91;5322512;26;34333;-82